Terminal Aerodrome Forecast
Issued by NWS Atlanta, GA

Home | Current Version | Previous Version | Text Only | Print | Product List | Glossary On
Versions: 1 2 3 4 5 6 7 8 9 10 11 12 13 14 15 16 17 18 19 20 21
000
FTUS42 KFFC 020700 AAA
TAFMCN
TAF AMD
KMCN 020756Z 0208/0306 00000KT 4SM BR SCT035
      TEMPO 0208/0212 2SM BR VV002
     FM021400 17004KT P6SM SCT035
     FM030000 16003KT P6SM FEW250=

USA.gov is the U.S. government's official web portal to all federal, state and local government web resources and services.